createdAt,value
2018-08-31T00:01:01.181Z,15.06
2018-08-31T00:03:41.091Z,14.99
2018-08-31T00:06:21.035Z,14.95
2018-08-31T00:09:03.339Z,14.98
2018-08-31T00:11:43.541Z,14.99
2018-08-31T00:14:12.231Z,15.05
2018-08-31T00:16:41.254Z,15.07
2018-08-31T00:19:10.053Z,15.15
2018-08-31T00:21:38.738Z,15.14
2018-08-31T00:24:18.698Z,15.21
2018-08-31T00:26:58.540Z,15.27
2018-08-31T00:29:38.387Z,15.26
2018-08-31T00:34:28.539Z,15.24
2018-08-31T00:39:20.413Z,15.25
2018-08-31T00:42:09.186Z,15.28
2018-08-31T00:44:49.065Z,15.30
2018-08-31T00:47:17.895Z,15.29
2018-08-31T00:49:46.653Z,15.28
2018-08-31T00:52:15.433Z,15.28
2018-08-31T00:54:44.117Z,15.28
2018-08-31T00:57:13.096Z,15.27
2018-08-31T00:59:41.882Z,15.27
2018-08-31T01:02:10.595Z,15.24
2018-08-31T01:04:39.351Z,15.25
2018-08-31T01:07:08.421Z,15.25
2018-08-31T01:09:37.253Z,15.15
2018-08-31T01:12:06.125Z,15.11
2018-08-31T01:14:35.013Z,15.09
2018-08-31T01:17:03.906Z,15.04
2018-08-31T01:19:32.621Z,14.95
2018-08-31T01:22:01.441Z,14.87
2018-08-31T01:24:30.211Z,14.83
2018-08-31T01:26:58.959Z,14.82
2018-08-31T01:29:27.701Z,14.74
2018-08-31T01:31:56.619Z,14.73
2018-08-31T01:34:25.643Z,14.78
2018-08-31T01:36:54.351Z,14.81
2018-08-31T01:39:23.138Z,14.82
2018-08-31T01:41:51.958Z,14.81
2018-08-31T01:44:20.735Z,14.82
2018-08-31T01:46:49.889Z,14.89
2018-08-31T01:49:18.663Z,14.86
2018-08-31T01:51:47.319Z,14.84
2018-08-31T01:54:16.140Z,14.83
2018-08-31T01:56:44.853Z,14.80
2018-08-31T01:59:13.743Z,14.84
2018-08-31T02:01:42.501Z,14.84
2018-08-31T02:04:11.437Z,14.76
2018-08-31T02:06:40.211Z,14.77
2018-08-31T02:09:14.184Z,14.82
2018-08-31T02:11:43.216Z,14.78
2018-08-31T02:14:12.135Z,14.77
2018-08-31T02:16:40.859Z,14.76
2018-08-31T02:19:09.679Z,14.80
2018-08-31T02:21:38.489Z,14.72
2018-08-31T02:24:07.484Z,14.67
2018-08-31T02:26:36.478Z,14.66
2018-08-31T02:29:05.235Z,14.61
2018-08-31T02:31:34.092Z,14.59
2018-08-31T02:34:02.884Z,14.57
2018-08-31T02:36:31.748Z,14.56
2018-08-31T02:39:00.604Z,14.49
2018-08-31T02:41:29.271Z,14.47
2018-08-31T02:43:58.247Z,14.44
2018-08-31T02:46:26.968Z,14.45
2018-08-31T02:48:55.974Z,14.42
2018-08-31T02:51:24.668Z,14.44
2018-08-31T02:53:53.378Z,14.45
2018-08-31T02:56:22.081Z,14.34
2018-08-31T02:58:50.741Z,14.32
2018-08-31T03:01:19.570Z,14.28
2018-08-31T03:03:48.470Z,14.29
2018-08-31T03:06:17.257Z,14.32
2018-08-31T03:08:46.181Z,14.27
2018-08-31T03:11:14.869Z,14.29
2018-08-31T03:13:43.678Z,14.36
2018-08-31T03:16:12.442Z,14.34
2018-08-31T03:18:41.138Z,14.37
2018-08-31T03:21:10.216Z,14.31
2018-08-31T03:23:38.886Z,14.33
2018-08-31T03:26:07.598Z,14.36
2018-08-31T03:28:36.288Z,14.41
2018-08-31T03:31:05.078Z,14.45
2018-08-31T03:33:33.973Z,14.47
2018-08-31T03:36:02.857Z,14.51
2018-08-31T03:38:31.504Z,14.55
2018-08-31T03:41:00.521Z,14.57
2018-08-31T03:43:29.287Z,14.55
2018-08-31T03:45:58.210Z,14.56
2018-08-31T03:48:26.865Z,14.57
2018-08-31T03:50:55.674Z,14.56
2018-08-31T03:53:24.569Z,14.57
2018-08-31T03:55:53.224Z,14.52
2018-08-31T03:58:21.957Z,14.53
2018-08-31T04:00:50.630Z,14.59
2018-08-31T04:03:19.290Z,14.57
2018-08-31T04:05:48.194Z,14.61
2018-08-31T04:08:16.993Z,14.65
2018-08-31T04:10:45.654Z,14.61
2018-08-31T04:13:14.584Z,14.64
2018-08-31T04:15:43.336Z,14.60
2018-08-31T04:18:12.030Z,14.61
2018-08-31T04:20:40.770Z,14.60
2018-08-31T04:23:09.558Z,14.56
2018-08-31T04:25:38.518Z,14.57
2018-08-31T04:28:07.286Z,14.53
2018-08-31T04:30:35.910Z,14.50
2018-08-31T04:33:04.635Z,14.42
2018-08-31T04:35:33.342Z,14.38
2018-08-31T04:38:02.378Z,14.32
2018-08-31T04:40:31.186Z,14.32
2018-08-31T04:43:00.089Z,14.33
2018-08-31T04:45:28.774Z,14.31
2018-08-31T04:47:57.538Z,14.27
2018-08-31T04:50:26.515Z,14.27
2018-08-31T04:52:55.136Z,14.21
2018-08-31T04:55:23.765Z,14.17
2018-08-31T04:57:52.430Z,14.24
2018-08-31T05:00:21.110Z,14.25
2018-08-31T05:02:50.270Z,14.28
2018-08-31T05:05:19.154Z,14.36
2018-08-31T05:07:47.958Z,14.34
2018-08-31T05:10:16.725Z,14.25
2018-08-31T05:12:45.461Z,14.29
2018-08-31T05:15:14.307Z,14.31
2018-08-31T05:17:43.241Z,14.38
2018-08-31T05:20:11.933Z,14.38
2018-08-31T05:22:40.704Z,14.42
2018-08-31T05:25:09.468Z,14.44
2018-08-31T05:27:38.450Z,14.49
2018-08-31T05:30:07.543Z,14.58
2018-08-31T05:32:36.937Z,14.56
2018-08-31T05:35:06.054Z,14.57
2018-08-31T05:37:35.027Z,14.64
2018-08-31T05:40:03.991Z,14.78
2018-08-31T05:42:32.796Z,14.86
2018-08-31T05:45:01.614Z,14.91
2018-08-31T05:47:30.269Z,14.89
2018-08-31T05:49:59.081Z,14.85
2018-08-31T05:52:27.892Z,14.90
2018-08-31T05:54:56.634Z,14.97
2018-08-31T05:57:25.561Z,14.96
2018-08-31T05:59:54.248Z,15.06
2018-08-31T06:02:23.123Z,15.11
2018-08-31T06:04:51.829Z,15.22
2018-08-31T06:07:20.571Z,15.24
2018-08-31T06:09:49.303Z,15.34
2018-08-31T06:12:18.033Z,15.29
2018-08-31T06:14:46.758Z,15.38
2018-08-31T06:17:15.713Z,15.55
2018-08-31T06:19:44.381Z,15.55
2018-08-31T06:22:13.326Z,15.59
2018-08-31T06:24:42.116Z,15.66
2018-08-31T06:27:10.883Z,15.68
2018-08-31T06:29:39.610Z,15.82
2018-08-31T06:32:08.485Z,15.68
2018-08-31T06:34:37.274Z,15.79
2018-08-31T06:37:06.597Z,15.84
2018-08-31T06:39:35.337Z,15.82
2018-08-31T06:42:04.384Z,15.71
2018-08-31T06:44:33.136Z,15.85
2018-08-31T06:47:01.809Z,15.90
2018-08-31T06:49:30.548Z,15.98
2018-08-31T06:51:59.294Z,15.90
2018-08-31T06:54:28.121Z,15.98
2018-08-31T06:56:56.776Z,15.97
2018-08-31T06:59:25.551Z,15.98
2018-08-31T07:01:54.433Z,15.99
2018-08-31T07:04:23.172Z,15.99
2018-08-31T07:06:52.065Z,16.09
2018-08-31T07:09:20.713Z,16.23
2018-08-31T07:11:49.484Z,16.29
2018-08-31T07:14:18.580Z,16.27
2018-08-31T07:16:47.282Z,16.25
2018-08-31T07:19:16.963Z,16.34
2018-08-31T07:21:45.786Z,16.44
2018-08-31T07:24:14.599Z,16.39
2018-08-31T07:26:43.547Z,16.49
2018-08-31T07:29:12.234Z,16.52
2018-08-31T07:31:41.022Z,16.51
2018-08-31T07:34:09.945Z,16.69
2018-08-31T07:36:38.613Z,16.71
2018-08-31T07:39:09.785Z,16.88
2018-08-31T07:41:38.569Z,17.03
2018-08-31T07:44:07.567Z,17.12
2018-08-31T07:46:36.343Z,17.22
2018-08-31T07:49:05.082Z,17.18
2018-08-31T07:51:33.886Z,17.15
2018-08-31T07:54:02.678Z,17.22
2018-08-31T07:56:31.414Z,17.20
2018-08-31T07:59:00.185Z,17.31
2018-08-31T08:01:28.858Z,17.36
2018-08-31T08:03:57.563Z,17.39
2018-08-31T08:06:26.239Z,17.36
2018-08-31T08:08:54.993Z,17.43
2018-08-31T08:11:23.929Z,17.55
2018-08-31T08:13:52.622Z,17.56
2018-08-31T08:16:21.413Z,17.43
2018-08-31T08:18:50.157Z,17.34
2018-08-31T08:21:19.219Z,17.55
2018-08-31T08:23:48.097Z,17.48
2018-08-31T08:26:16.769Z,17.57
2018-08-31T08:28:45.913Z,17.62
2018-08-31T08:31:14.641Z,17.69
2018-08-31T08:33:43.898Z,17.77
2018-08-31T08:36:12.587Z,17.96
2018-08-31T08:38:41.358Z,18.08
2018-08-31T08:41:10.074Z,18.08
2018-08-31T08:43:38.918Z,18.02
2018-08-31T08:46:07.789Z,18.10
2018-08-31T08:48:36.790Z,18.04
2018-08-31T08:51:05.385Z,17.83
2018-08-31T08:53:34.279Z,17.98
2018-08-31T08:56:03.003Z,17.67
2018-08-31T08:58:31.703Z,17.87
2018-08-31T09:01:00.463Z,17.91
2018-08-31T09:03:29.205Z,17.93
2018-08-31T09:05:57.906Z,18.16
2018-08-31T09:08:26.724Z,18.17
2018-08-31T09:10:55.498Z,18.30
2018-08-31T09:13:24.146Z,18.16
2018-08-31T09:15:52.866Z,18.06
2018-08-31T09:18:26.583Z,18.34
2018-08-31T09:20:56.170Z,18.46
2018-08-31T09:23:25.162Z,18.37
2018-08-31T09:25:54.832Z,18.67
2018-08-31T09:28:23.457Z,18.81
2018-08-31T09:30:52.205Z,18.72
2018-08-31T09:33:21.014Z,18.92
2018-08-31T09:35:49.690Z,19.02
2018-08-31T09:38:19.386Z,18.95
2018-08-31T09:40:48.246Z,18.83
2018-08-31T09:43:16.995Z,19.03
2018-08-31T09:45:45.665Z,18.77
2018-08-31T09:48:14.511Z,18.83
2018-08-31T09:50:43.197Z,18.76
2018-08-31T09:53:11.977Z,19.10
2018-08-31T09:55:40.897Z,19.21
2018-08-31T09:58:09.556Z,19.24
2018-08-31T10:00:43.621Z,19.52
2018-08-31T10:03:17.418Z,19.40
2018-08-31T10:05:46.167Z,19.11
2018-08-31T10:08:14.800Z,19.26
2018-08-31T10:10:43.905Z,19.41
2018-08-31T10:13:14.337Z,19.34
2018-08-31T10:15:43.932Z,19.59
2018-08-31T10:18:12.679Z,19.61
2018-08-31T10:20:41.446Z,19.61
2018-08-31T10:23:10.276Z,19.69
2018-08-31T10:25:39.587Z,19.73
2018-08-31T10:28:15.050Z,19.75
2018-08-31T10:30:43.930Z,19.71
2018-08-31T10:33:12.773Z,19.98
2018-08-31T10:35:41.656Z,20.02
2018-08-31T10:38:10.410Z,20.14
2018-08-31T10:40:39.344Z,20.14
2018-08-31T10:43:08.119Z,20.31
2018-08-31T10:45:36.801Z,20.28
2018-08-31T10:48:05.934Z,20.33
2018-08-31T10:50:34.715Z,20.52
2018-08-31T10:53:03.512Z,20.74
2018-08-31T10:55:32.157Z,20.82
2018-08-31T10:58:00.825Z,21.09
2018-08-31T11:00:29.851Z,21.23
2018-08-31T11:02:58.805Z,21.33
2018-08-31T11:05:27.648Z,21.31
2018-08-31T11:07:56.421Z,21.22
2018-08-31T11:10:25.102Z,21.44
2018-08-31T11:12:54.014Z,21.45
2018-08-31T11:15:23.057Z,21.72
2018-08-31T11:17:51.733Z,21.84
2018-08-31T11:20:20.432Z,21.70
2018-08-31T11:22:49.394Z,21.81
2018-08-31T11:25:18.161Z,22.12
2018-08-31T11:27:46.873Z,21.88
2018-08-31T11:30:15.820Z,21.75
2018-08-31T11:32:44.954Z,21.40
2018-08-31T11:35:13.733Z,21.42
2018-08-31T11:37:42.410Z,21.59
2018-08-31T11:40:11.185Z,21.70
2018-08-31T11:42:39.981Z,21.38
2018-08-31T11:45:09.082Z,21.35
2018-08-31T11:47:37.961Z,21.34
2018-08-31T11:50:07.028Z,21.28
2018-08-31T11:52:35.731Z,21.12
2018-08-31T11:55:04.602Z,21.12
2018-08-31T11:57:33.222Z,21.10
2018-08-31T12:00:01.893Z,21.06
2018-08-31T12:02:30.621Z,21.07
2018-08-31T12:04:59.378Z,21.03
2018-08-31T12:07:28.073Z,20.90
2018-08-31T12:09:58.482Z,20.86
2018-08-31T12:12:30.521Z,20.96
2018-08-31T12:14:59.380Z,20.91
2018-08-31T12:17:28.138Z,20.81
2018-08-31T12:19:56.846Z,20.67
2018-08-31T12:22:25.793Z,20.46
2018-08-31T12:24:54.629Z,20.51
2018-08-31T12:27:23.329Z,20.57
2018-08-31T12:29:52.065Z,20.68
2018-08-31T12:32:20.766Z,20.60
2018-08-31T12:34:49.664Z,20.52
2018-08-31T12:37:19.103Z,20.57
2018-08-31T12:39:47.806Z,20.57
2018-08-31T12:42:16.521Z,20.68
2018-08-31T12:44:45.462Z,20.58
2018-08-31T12:47:14.217Z,20.61
2018-08-31T12:49:42.901Z,20.51
2018-08-31T12:52:11.604Z,20.53
2018-08-31T12:54:40.370Z,20.63
2018-08-31T12:57:09.229Z,20.64
2018-08-31T12:59:38.026Z,20.60
2018-08-31T13:02:06.668Z,20.46
2018-08-31T13:04:35.514Z,20.42
2018-08-31T13:07:04.582Z,20.36
2018-08-31T13:09:33.249Z,20.37
2018-08-31T13:12:01.992Z,20.43
2018-08-31T13:14:30.701Z,20.36
2018-08-31T13:16:59.502Z,20.36
2018-08-31T13:19:28.175Z,20.20
2018-08-31T13:21:56.982Z,20.21
2018-08-31T13:24:25.626Z,20.27
2018-08-31T13:26:54.289Z,20.42
2018-08-31T13:29:23.187Z,20.51
2018-08-31T13:31:51.977Z,20.45
2018-08-31T13:34:20.834Z,20.47
2018-08-31T13:36:49.513Z,20.79
2018-08-31T13:39:18.251Z,20.91
2018-08-31T13:41:47.199Z,20.74
2018-08-31T13:44:15.994Z,20.90
2018-08-31T13:46:44.983Z,20.68
2018-08-31T13:49:14.279Z,20.56
2018-08-31T13:51:43.115Z,20.56
2018-08-31T13:54:12.065Z,20.30
2018-08-31T13:56:40.786Z,20.27
2018-08-31T13:59:09.607Z,20.60
2018-08-31T14:01:38.332Z,20.24
2018-08-31T14:04:07.119Z,19.96
2018-08-31T14:06:36.112Z,19.75
2018-08-31T14:09:06.491Z,19.85
2018-08-31T14:11:35.425Z,19.49
2018-08-31T14:14:04.216Z,19.41
2018-08-31T14:16:35.558Z,19.41
2018-08-31T14:19:05.622Z,19.28
2018-08-31T14:21:34.450Z,19.22
2018-08-31T14:24:03.150Z,19.31
2018-08-31T14:26:32.063Z,19.34
2018-08-31T14:29:00.846Z,19.37
2018-08-31T14:31:29.638Z,19.30
2018-08-31T14:33:58.334Z,19.27
2018-08-31T14:36:27.315Z,19.29
2018-08-31T14:38:55.930Z,19.47
2018-08-31T14:41:24.623Z,19.47
2018-08-31T14:43:53.615Z,19.29
2018-08-31T14:46:22.393Z,19.16
2018-08-31T14:48:51.281Z,19.02
2018-08-31T14:51:20.179Z,19.14
2018-08-31T14:53:49.003Z,18.98
2018-08-31T14:56:18.704Z,19.20
2018-08-31T14:58:47.450Z,19.06
2018-08-31T15:01:16.511Z,19.09
2018-08-31T15:03:45.185Z,19.21
2018-08-31T15:06:13.958Z,19.27
2018-08-31T15:08:42.682Z,19.33
2018-08-31T15:11:11.421Z,19.39
2018-08-31T15:13:40.383Z,19.36
2018-08-31T15:16:09.120Z,19.38
2018-08-31T15:18:37.811Z,19.31
2018-08-31T15:21:06.736Z,19.25
2018-08-31T15:23:35.780Z,19.35
2018-08-31T15:26:04.529Z,19.22
2018-08-31T15:28:33.375Z,19.16
2018-08-31T15:31:02.082Z,19.25
2018-08-31T15:33:30.773Z,19.26
2018-08-31T15:35:59.549Z,19.30
2018-08-31T15:38:28.672Z,19.01
2018-08-31T15:40:57.508Z,19.13
2018-08-31T15:43:26.334Z,19.14
2018-08-31T15:45:55.284Z,19.14
2018-08-31T15:48:23.996Z,19.09
2018-08-31T15:50:52.862Z,19.07
2018-08-31T15:53:21.623Z,19.05
2018-08-31T15:55:50.614Z,18.98
2018-08-31T15:58:19.264Z,18.94
2018-08-31T16:00:47.945Z,18.91
2018-08-31T16:03:18.338Z,18.81
2018-08-31T16:05:47.057Z,18.80
2018-08-31T16:08:15.981Z,18.71
2018-08-31T16:10:44.753Z,18.66
2018-08-31T16:13:13.552Z,18.44
2018-08-31T16:15:42.298Z,18.50
2018-08-31T16:18:11.075Z,18.47
2018-08-31T16:20:39.881Z,18.48
2018-08-31T16:23:08.713Z,18.51
2018-08-31T16:25:37.448Z,18.49
2018-08-31T16:28:06.244Z,18.39
2018-08-31T16:30:35.021Z,18.42
2018-08-31T16:33:04.097Z,18.53
2018-08-31T16:35:32.934Z,18.52
2018-08-31T16:38:01.785Z,18.48
2018-08-31T16:40:30.626Z,18.45
2018-08-31T16:42:59.375Z,18.48
2018-08-31T16:45:28.243Z,18.53
2018-08-31T16:47:56.963Z,18.44
2018-08-31T16:50:25.716Z,18.49
2018-08-31T16:52:54.437Z,18.50
2018-08-31T16:55:23.158Z,18.59
2018-08-31T16:57:51.925Z,18.57
2018-08-31T17:00:20.762Z,18.57
2018-08-31T17:02:49.995Z,18.55
2018-08-31T17:05:18.949Z,18.60
2018-08-31T17:07:47.713Z,18.58
2018-08-31T17:10:16.527Z,18.56
2018-08-31T17:12:45.226Z,18.64
2018-08-31T17:15:14.029Z,18.61
2018-08-31T17:17:42.895Z,18.51
2018-08-31T17:20:11.711Z,18.49
2018-08-31T17:22:40.481Z,18.45
2018-08-31T17:25:09.679Z,18.37
2018-08-31T17:27:43.723Z,18.25
2018-08-31T17:30:17.634Z,18.15
2018-08-31T17:32:51.534Z,18.22
2018-08-31T17:35:26.006Z,18.14
2018-08-31T17:37:54.834Z,18.26
2018-08-31T17:40:23.621Z,18.27
2018-08-31T17:42:52.706Z,18.19
2018-08-31T17:45:21.986Z,18.06
2018-08-31T17:47:51.330Z,18.09
2018-08-31T17:50:20.410Z,18.08
2018-08-31T17:52:49.150Z,18.12
2018-08-31T17:55:17.965Z,18.06
2018-08-31T17:57:46.821Z,18.04
2018-08-31T18:00:15.537Z,17.99
2018-08-31T18:02:44.438Z,17.99
2018-08-31T18:05:13.225Z,17.97
2018-08-31T18:07:41.884Z,17.96
2018-08-31T18:10:10.810Z,17.89
2018-08-31T18:12:39.533Z,17.77
2018-08-31T18:15:08.232Z,17.85
2018-08-31T18:17:37.069Z,17.86
2018-08-31T18:20:06.046Z,17.90
2018-08-31T18:22:35.165Z,17.84
2018-08-31T18:25:04.045Z,17.79
2018-08-31T18:27:32.724Z,17.78
2018-08-31T18:30:01.534Z,17.92
2018-08-31T18:32:30.196Z,17.82
2018-08-31T18:34:59.005Z,17.69
2018-08-31T18:37:27.757Z,17.64
2018-08-31T18:39:56.528Z,17.73
2018-08-31T18:42:25.377Z,17.73
2018-08-31T18:44:54.135Z,17.64
2018-08-31T18:47:22.977Z,17.58
2018-08-31T18:49:51.867Z,17.59
2018-08-31T18:52:20.690Z,17.53
2018-08-31T18:54:49.527Z,17.54
2018-08-31T18:57:18.321Z,17.49
2018-08-31T18:59:47.007Z,17.53
2018-08-31T19:02:15.818Z,17.53
2018-08-31T19:04:44.603Z,17.50
2018-08-31T19:07:13.474Z,17.52
2018-08-31T19:09:42.373Z,17.45
2018-08-31T19:12:11.413Z,17.45
2018-08-31T19:14:40.158Z,17.44
2018-08-31T19:17:08.925Z,17.48
2018-08-31T19:19:37.736Z,17.45
2018-08-31T19:22:06.496Z,17.46
2018-08-31T19:24:35.213Z,17.51
2018-08-31T19:27:04.105Z,17.44
2018-08-31T19:29:32.852Z,17.39
2018-08-31T19:32:01.993Z,17.37
2018-08-31T19:34:30.764Z,17.37
2018-08-31T19:36:59.939Z,17.37
2018-08-31T19:39:28.955Z,17.36
2018-08-31T19:41:57.752Z,17.36
2018-08-31T19:44:26.590Z,17.39
2018-08-31T19:46:55.394Z,17.41
2018-08-31T19:49:24.015Z,17.43
2018-08-31T19:51:52.917Z,17.43
2018-08-31T19:54:21.648Z,17.43
2018-08-31T19:56:50.346Z,17.43
2018-08-31T19:59:18.988Z,17.42
2018-08-31T20:01:47.710Z,17.37
2018-08-31T20:04:16.521Z,17.40
2018-08-31T20:06:45.287Z,17.43
2018-08-31T20:09:14.431Z,17.44
2018-08-31T20:11:43.181Z,17.40
2018-08-31T20:14:11.874Z,17.35
2018-08-31T20:16:40.627Z,17.34
2018-08-31T20:19:09.392Z,17.34
2018-08-31T20:21:38.259Z,17.29
2018-08-31T20:24:07.020Z,17.32
2018-08-31T20:26:35.645Z,17.32
2018-08-31T20:29:04.396Z,17.31
2018-08-31T20:31:33.081Z,17.32
2018-08-31T20:34:02.112Z,17.31
2018-08-31T20:36:30.770Z,17.34
2018-08-31T20:38:59.466Z,17.28
2018-08-31T20:41:28.268Z,17.27
2018-08-31T20:43:57.156Z,17.30
2018-08-31T20:46:26.263Z,17.19
2018-08-31T20:48:55.008Z,17.09
2018-08-31T20:51:23.699Z,17.11
2018-08-31T20:53:52.466Z,17.07
2018-08-31T20:56:21.141Z,17.01
2018-08-31T20:58:49.994Z,16.91
2018-08-31T21:01:18.684Z,17.06
2018-08-31T21:03:47.525Z,17.05
2018-08-31T21:06:16.488Z,17.03
2018-08-31T21:08:45.303Z,17.02
2018-08-31T21:11:14.020Z,17.00
2018-08-31T21:13:42.938Z,16.95
2018-08-31T21:16:11.717Z,17.04
2018-08-31T21:18:40.516Z,16.99
2018-08-31T21:21:09.267Z,16.95
2018-08-31T21:23:38.406Z,16.99
2018-08-31T21:26:07.501Z,16.99
2018-08-31T21:28:36.302Z,16.98
2018-08-31T21:31:05.003Z,16.97
2018-08-31T21:33:33.746Z,16.95
2018-08-31T21:36:02.450Z,16.90
2018-08-31T21:38:31.198Z,16.90
2018-08-31T21:40:59.887Z,16.85
2018-08-31T21:43:28.663Z,16.83
2018-08-31T21:45:57.349Z,16.86
2018-08-31T21:48:26.133Z,16.81
2018-08-31T21:50:55.009Z,16.80
2018-08-31T21:53:23.665Z,16.84
2018-08-31T21:55:52.398Z,16.81
2018-08-31T21:58:21.218Z,16.74
2018-08-31T22:00:49.997Z,16.71
2018-08-31T22:03:18.721Z,16.71
2018-08-31T22:05:48.289Z,16.67
2018-08-31T22:08:18.498Z,16.70
2018-08-31T22:10:47.401Z,16.73
2018-08-31T22:13:16.540Z,16.73
2018-08-31T22:15:45.542Z,16.77
2018-08-31T22:18:14.459Z,16.76
2018-08-31T22:20:43.381Z,16.73
2018-08-31T22:23:12.110Z,16.71
2018-08-31T22:25:40.857Z,16.71
2018-08-31T22:28:09.558Z,16.56
2018-08-31T22:30:38.383Z,16.72
2018-08-31T22:33:07.131Z,16.67
2018-08-31T22:35:35.954Z,16.64
2018-08-31T22:38:04.722Z,16.66
2018-08-31T22:40:33.471Z,16.60
2018-08-31T22:43:02.298Z,16.59
2018-08-31T22:45:30.944Z,16.48
2018-08-31T22:47:59.753Z,16.47
2018-08-31T22:50:28.625Z,16.39
2018-08-31T22:52:57.333Z,16.43
2018-08-31T22:55:26.151Z,16.31
2018-08-31T22:57:54.850Z,16.21
2018-08-31T23:00:23.666Z,16.14
2018-08-31T23:02:52.574Z,16.06
2018-08-31T23:05:21.420Z,16.07
2018-08-31T23:07:55.565Z,16.04
2018-08-31T23:10:24.293Z,16.06
2018-08-31T23:12:52.961Z,16.04
2018-08-31T23:15:21.665Z,16.07
2018-08-31T23:17:52.205Z,15.97
2018-08-31T23:20:22.029Z,15.99
2018-08-31T23:22:51.052Z,16.00
2018-08-31T23:25:25.439Z,16.00
2018-08-31T23:27:54.084Z,16.00
2018-08-31T23:30:22.774Z,15.96
2018-08-31T23:32:51.646Z,16.01
2018-08-31T23:35:20.530Z,15.99
2018-08-31T23:37:49.388Z,15.95
2018-08-31T23:40:18.137Z,15.92
2018-08-31T23:42:47.041Z,15.87
2018-08-31T23:45:15.732Z,15.94
2018-08-31T23:47:44.734Z,15.99
2018-08-31T23:50:13.900Z,15.96
2018-08-31T23:52:42.946Z,15.93
2018-08-31T23:55:11.790Z,15.87
2018-08-31T23:57:40.595Z,15.88
